Justice — WDG2184 — position and weather

sailwx.info

Track history (hours):
 
Tides and Currents Weather Stations Pressure Air Temp Water Temp Dewpoint Dewpoint Depression Visibility Wind Speed Wind Dir Waves Ship Positions

Justice

Owner: Boston Towing & Transportation, Boston, MA. More information available from US FCC via Universal Licensing System and Coast Guard Vessel Documentation Center.

Last reported at 2017-Aug-18 03:00 UTC. Time now 2017-Aug-18 03:06 UTC.
Position N 42°23' W 071°03'.

Length 30 m; draft 5.8 m.

Type: Tug. MMSI: 367513010.

Date/timePositionNaut miles runAvg speedWind from/ knotsBaromVisibWave heightAir tempDewpointWater temp
2017-Aug-18 03:00N 42°23' W 071°03'0 0.0
2017-Aug-18 02:29N 42°23' W 071°03'1 1.7
2017-Aug-18 02:00N 42°23' W 071°02'1 1.3
2017-Aug-18 01:30N 42°23' W 071°02'0 0.8
2017-Aug-18 01:01N 42°23' W 071°03'0 0.0
2017-Aug-18 00:30N 42°23' W 071°03'0 0.0
2017-Aug-18 00:00N 42°23' W 071°03'0 0.0
2017-Aug-17 23:30N 42°23' W 071°03'0 0.0
2017-Aug-17 23:00N 42°23' W 071°03'0 0.0
2017-Aug-17 22:30N 42°23' W 071°03'0 0.0
2017-Aug-17 22:00N 42°23' W 071°03'0 0.0
2017-Aug-17 21:30N 42°23' W 071°03'0 0.0
2017-Aug-17 21:00N 42°23' W 071°03'0 0.1
2017-Aug-17 20:30N 42°23' W 071°03'1 1.5
2017-Aug-17 20:00N 42°23' W 071°04'1 1.5
2017-Aug-17 19:30N 42°23' W 071°03'0 1.0
2017-Aug-17 19:00N 42°23' W 071°03'1 1.1
2017-Aug-17 18:30N 42°23' W 071°03'0 0.0
2017-Aug-17 18:00N 42°23' W 071°03'0 0.0
2017-Aug-17 17:31N 42°23' W 071°03'0 0.0
2017-Aug-17 17:00N 42°23' W 071°03'0 0.0
2017-Aug-17 16:30N 42°23' W 071°03'0 0.0
2017-Aug-17 16:00N 42°23' W 071°03'0 0.0
2017-Aug-17 15:31N 42°23' W 071°03'0 0.1
2017-Aug-17 15:00N 42°23' W 071°03'0 0.0
2017-Aug-17 14:30N 42°23' W 071°03'0 0.0
2017-Aug-17 14:00N 42°23' W 071°03'0 0.0
2017-Aug-17 13:30N 42°23' W 071°03'0 0.0
2017-Aug-17 13:00N 42°23' W 071°03'0 0.8
2017-Aug-17 12:30N 42°23' W 071°02'1 2.4
2017-Aug-17 12:01N 42°24' W 071°01'0 1.0
2017-Aug-17 11:30N 42°23' W 071°01'2 3.1
2017-Aug-17 11:00N 42°23' W 071°03'0 0.3
2017-Aug-17 10:30N 42°23' W 071°03'2 3.9
2017-Aug-17 10:00N 42°21' W 071°02'1 1.8
2017-Aug-17 09:30N 42°22' W 071°03'1 1.4
2017-Aug-17 09:00N 42°23' W 071°03'0 0.0
2017-Aug-17 08:30N 42°23' W 071°03'0 0.0
2017-Aug-17 08:00N 42°23' W 071°03'0 0.0
2017-Aug-17 07:30N 42°23' W 071°03'0 0.0
2017-Aug-17 07:00N 42°23' W 071°03'0 0.0
2017-Aug-17 06:31N 42°23' W 071°03'0 0.0
2017-Aug-17 06:00N 42°23' W 071°03'1 1.7
2017-Aug-17 05:30N 42°23' W 071°01'0 0.0
2017-Aug-17 05:00N 42°23' W 071°01'1 1.6
2017-Aug-17 04:31N 42°24' W 071°01'1 2.2
2017-Aug-17 04:00N 42°23' W 071°02'2 3.2
2017-Aug-17 03:30N 42°22' W 071°02'1 1.7
2017-Aug-17 03:00N 42°22' W 071°03'1 2.6
2017-Aug-17 02:30N 42°23' W 071°01'1 1.7
2017-Aug-17 02:00N 42°24' W 071°01'1 2.4
2017-Aug-17 01:31N 42°23' W 071°02'1 1.0
2017-Aug-17 01:00N 42°23' W 071°03'0 0.0
2017-Aug-17 00:30N 42°23' W 071°03'0 0.0
2017-Aug-17 00:00N 42°23' W 071°03'1 2.7
2017-Aug-16 23:30N 42°24' W 071°01'0 0.0
2017-Aug-16 23:00N 42°24' W 071°01'1 2.7
2017-Aug-16 22:30N 42°23' W 071°03'0 0.5
2017-Aug-16 22:00N 42°23' W 071°03'0 0.0
2017-Aug-16 21:30N 42°23' W 071°03'0 0.0
2017-Aug-16 21:00N 42°23' W 071°03'0 0.0
2017-Aug-16 20:28N 42°23' W 071°03'0 0.0
2017-Aug-16 19:59N 42°23' W 071°03'0 0.1
2017-Aug-16 19:29N 42°23' W 071°03'0 0.0
2017-Aug-16 19:00N 42°23' W 071°03'0 0.0
2017-Aug-16 18:30N 42°23' W 071°03'0 0.0
2017-Aug-16 18:00N 42°23' W 071°03'0 0.0
2017-Aug-16 17:30N 42°23' W 071°03'0 0.0
2017-Aug-16 17:00N 42°23' W 071°03'0 0.0
2017-Aug-16 16:30N 42°23' W 071°03'0 0.0
2017-Aug-16 16:00N 42°23' W 071°03'0 0.0
2017-Aug-16 15:30N 42°23' W 071°03'0 0.0
2017-Aug-16 15:00N 42°23' W 071°03'0 0.0
2017-Aug-16 14:30N 42°23' W 071°03'0 0.0
2017-Aug-16 13:59N 42°23' W 071°03'0 0.0
2017-Aug-16 13:31N 42°23' W 071°03'0 0.0
2017-Aug-16 13:00N 42°23' W 071°03'0 0.0
2017-Aug-16 12:30N 42°23' W 071°03'1 1.0
2017-Aug-16 12:01N 42°22' W 071°03'4 7.1
2017-Aug-16 11:30N 42°20' W 070°59'3 6.1
2017-Aug-16 11:00N 42°18' W 070°56'4 7.0
2017-Aug-16 10:29N 42°15' W 070°57'1 2.1
2017-Aug-16 10:00N 42°14' W 070°58'0 0.8
2017-Aug-16 09:30N 42°15' W 070°58'3 6.2
2017-Aug-16 09:00N 42°17' W 070°56'3 6.8
2017-Aug-16 08:30N 42°20' W 070°58'4 8.5
2017-Aug-16 08:01N 42°22' W 071°03'0 0.8
2017-Aug-16 07:30N 42°23' W 071°03'0 0.0
2017-Aug-16 07:00N 42°23' W 071°03'0 0.0
2017-Aug-16 06:30N 42°23' W 071°03'0 0.0
2017-Aug-16 06:00N 42°23' W 071°03'0 0.0
2017-Aug-16 05:30N 42°23' W 071°03'0 0.0
2017-Aug-16 04:58N 42°23' W 071°03'0 0.0
2017-Aug-16 04:30N 42°23' W 071°03'0 0.0
2017-Aug-16 04:00N 42°23' W 071°03'0 0.0
2017-Aug-16 03:30N 42°23' W 071°03'0 0.0
2017-Aug-16 03:00N 42°23' W 071°03'0 0.0
2017-Aug-16 02:30N 42°23' W 071°03'0 0.0
2017-Aug-16 02:00N 42°23' W 071°03'1 3.0
2017-Aug-16 01:30N 42°24' W 071°01'0 0.5
2017-Aug-16 01:00N 42°24' W 071°01'1 1.6
2017-Aug-16 00:30N 42°23' W 071°01'1 2.4
2017-Aug-16 00:00N 42°23' W 071°03'0 0.3
2017-Aug-15 23:27N 42°23' W 071°03'2 4.3
2017-Aug-15 23:00N 42°21' W 071°01'1 1.3
2017-Aug-15 22:30N 42°21' W 071°01'2 3.4
2017-Aug-15 22:00N 42°22' W 071°03'1 2.8
2017-Aug-15 21:30N 42°23' W 071°02'0 0.2
2017-Aug-15 21:00N 42°23' W 071°01'0 0.0
2017-Aug-15 20:30N 42°23' W 071°01'0 0.0
2017-Aug-15 20:00N 42°23' W 071°01'0 0.9
2017-Aug-15 19:30N 42°23' W 071°02'0 1.0
2017-Aug-15 19:00N 42°23' W 071°03'0 0.1
2017-Aug-15 18:30N 42°23' W 071°03'0 0.1
2017-Aug-15 18:00N 42°23' W 071°03'0 0.0
2017-Aug-15 17:30N 42°23' W 071°03'0 0.0
2017-Aug-15 17:00N 42°23' W 071°03'0 0.0
2017-Aug-15 16:21N 42°23' W 071°03'0 0.0
2017-Aug-15 16:00N 42°23' W 071°03'0 0.0
2017-Aug-15 15:29N 42°23' W 071°03'0 0.0
2017-Aug-15 15:00N 42°23' W 071°03'0 0.0
2017-Aug-15 14:29N 42°23' W 071°03'0 0.0
2017-Aug-15 14:00N 42°23' W 071°03'0 0.0
2017-Aug-15 13:30N 42°23' W 071°03'0 0.0
2017-Aug-15 13:00N 42°23' W 071°03'0 0.0
2017-Aug-15 12:30N 42°23' W 071°03'0 0.0
2017-Aug-15 12:00N 42°23' W 071°03'0 0.4
2017-Aug-15 11:30N 42°23' W 071°03'1 1.5
2017-Aug-15 10:59N 42°23' W 071°02'1 1.7
2017-Aug-15 10:30N 42°23' W 071°03'0 0.0
2017-Aug-15 10:00N 42°23' W 071°03'0 0.0
2017-Aug-15 09:30N 42°23' W 071°03'0 0.0
2017-Aug-15 09:00N 42°23' W 071°03'0 0.0
2017-Aug-15 08:30N 42°23' W 071°03'2 4.5
2017-Aug-15 08:01N 42°21' W 071°01'0 0.4
2017-Aug-15 07:30N 42°21' W 071°01'1 2.8
2017-Aug-15 07:00N 42°22' W 071°02'1 2.3
2017-Aug-15 06:30N 42°23' W 071°03'0 0.0
2017-Aug-15 06:00N 42°23' W 071°03'0 0.0
2017-Aug-15 05:30N 42°23' W 071°03'0 0.0
2017-Aug-15 05:00N 42°23' W 071°03'0 0.0
2017-Aug-15 04:30N 42°23' W 071°03'0 0.0
2017-Aug-15 04:00N 42°23' W 071°03'0 0.0
2017-Aug-15 03:22N 42°23' W 071°03'0 0.0
2017-Aug-15 03:00N 42°23' W 071°03'0 0.0
2017-Aug-15 02:30N 42°23' W 071°03'0 0.0
2017-Aug-15 02:00N 42°23' W 071°03'0 0.0
2017-Aug-15 01:30N 42°23' W 071°03'0 0.0
2017-Aug-15 01:00N 42°23' W 071°03'0 0.6
2017-Aug-15 00:30N 42°23' W 071°03'0 0.0
2017-Aug-15 00:01N 42°23' W 071°03'0 0.0
2017-Aug-14 23:30N 42°23' W 071°03'3 5.6
2017-Aug-14 23:00N 42°21' W 071°01'4 7.9
2017-Aug-14 22:30N 42°19' W 070°56'4 8.8
2017-Aug-14 22:00N 42°15' W 070°58'1 1.3
2017-Aug-14 21:30N 42°14' W 070°58'0 0.4
2017-Aug-14 21:00N 42°14' W 070°58'1 1.7
2017-Aug-14 20:31N 42°15' W 070°57'3 6.2
2017-Aug-14 20:00N 42°18' W 070°55'1 2.9
2017-Aug-14 19:30N 42°19' W 070°55'4 7.6
2017-Aug-14 19:00N 42°20' W 070°60'3 7.0
2017-Aug-14 18:30N 42°23' W 071°03'0 0.2
2017-Aug-14 18:01N 42°23' W 071°03'0 0.0
2017-Aug-14 17:30N 42°23' W 071°03'0 0.0
2017-Aug-14 17:00N 42°23' W 071°03'0 0.0
2017-Aug-14 16:30N 42°23' W 071°03'1 2.7
2017-Aug-14 16:01N 42°22' W 071°02'1 2.1
2017-Aug-14 15:30N 42°21' W 071°01'0 0.5
2017-Aug-14 15:00N 42°21' W 071°01'2 3.7
2017-Aug-14 14:30N 42°20' W 070°59'1 1.9
2017-Aug-14 14:01N 42°20' W 070°57'3 6.0
2017-Aug-14 13:30N 42°21' W 071°01'0 0.9
2017-Aug-14 13:00N 42°21' W 071°02'2 3.6
2017-Aug-14 12:30N 42°23' W 071°03'0 0.0
2017-Aug-14 12:00N 42°23' W 071°03'0 0.0
2017-Aug-14 11:30N 42°23' W 071°03'0 0.0
2017-Aug-14 11:00N 42°23' W 071°03'0 0.2
2017-Aug-14 10:30N 42°23' W 071°03'1 1.6
2017-Aug-14 10:00N 42°23' W 071°02'1 1.5
2017-Aug-14 09:30N 42°23' W 071°03'3 5.5
2017-Aug-14 09:00N 42°21' W 071°01'0 0.1
2017-Aug-14 08:30N 42°21' W 071°01'2 4.2
2017-Aug-14 08:00N 42°20' W 070°58'1 1.0
2017-Aug-14 07:30N 42°20' W 070°58'2 3.3
2017-Aug-14 07:00N 42°20' W 070°60'1 1.8
2017-Aug-14 06:30N 42°21' W 071°01'2 4.7
2017-Aug-14 06:00N 42°23' W 071°03'0 0.4
2017-Aug-14 05:30N 42°23' W 071°03'0 0.0
2017-Aug-14 05:00N 42°23' W 071°03'0 0.0
2017-Aug-14 04:30N 42°23' W 071°03'0 0.0
2017-Aug-14 04:00N 42°23' W 071°03'0 0.0
2017-Aug-14 03:28N 42°23' W 071°03'0 0.0
2017-Aug-14 03:00N 42°23' W 071°03'0 0.0
2017-Aug-14 02:30N 42°23' W 071°03'0 0.0
2017-Aug-14 02:00N 42°23' W 071°03'0 0.0
2017-Aug-14 01:30N 42°23' W 071°03'0 0.0
2017-Aug-14 01:00N 42°23' W 071°03'0 0.0
2017-Aug-14 00:30N 42°23' W 071°03'0 0.0
2017-Aug-14 00:00N 42°23' W 071°03'1 1.3
2017-Aug-13 23:30N 42°23' W 071°02'1 2.1
2017-Aug-13 23:00N 42°24' W 071°01'1 2.4
2017-Aug-13 22:31N 42°23' W 071°02'0 0.9
2017-Aug-13 22:00N 42°23' W 071°03'0 0.0
2017-Aug-13 21:30N 42°23' W 071°03'0 0.0
2017-Aug-13 21:00N 42°23' W 071°03'0 0.0
2017-Aug-13 20:30N 42°23' W 071°03'0 0.0
2017-Aug-13 19:59N 42°23' W 071°03'0 0.0
2017-Aug-13 19:29N 42°23' W 071°03'0 0.1
2017-Aug-13 19:00N 42°23' W 071°03'0 0.0
2017-Aug-13 18:29N 42°23' W 071°03'0 0.0
2017-Aug-13 18:00N 42°23' W 071°03'0 0.1
2017-Aug-13 17:30N 42°23' W 071°03'0 0.0
2017-Aug-13 16:56N 42°23' W 071°03'0 0.0
2017-Aug-13 16:30N 42°23' W 071°03'0 0.0
2017-Aug-13 15:59N 42°23' W 071°03'0 0.0
2017-Aug-13 15:30N 42°23' W 071°03'0 0.0
2017-Aug-13 14:59N 42°23' W 071°03'0 0.0
2017-Aug-13 14:30N 42°23' W 071°03'0 0.0
2017-Aug-13 14:00N 42°23' W 071°03'0 0.0
2017-Aug-13 13:30N 42°23' W 071°03'0 0.0
2017-Aug-13 13:00N 42°23' W 071°03'0 0.0
2017-Aug-13 12:30N 42°23' W 071°03'0 0.2
2017-Aug-13 12:00N 42°23' W 071°03'2 3.5
2017-Aug-13 11:30N 42°21' W 071°02'2 4.2
2017-Aug-13 11:00N 42°23' W 071°01'1 1.4
2017-Aug-13 10:30N 42°24' W 071°01'1 2.2
2017-Aug-13 10:00N 42°23' W 071°02'1 1.5
2017-Aug-13 09:30N 42°23' W 071°03'1 2.0
2017-Aug-13 09:00N 42°23' W 071°02'3 5.2
2017-Aug-13 08:30N 42°21' W 071°01'2 3.7
2017-Aug-13 08:01N 42°20' W 070°59'2 4.1
2017-Aug-13 07:30N 42°21' W 071°01'2 4.6
2017-Aug-13 07:00N 42°23' W 071°02'0 0.0
2017-Aug-13 06:27N 42°23' W 071°02'1 1.9
2017-Aug-13 06:00N 42°23' W 071°03'1 1.2
2017-Aug-13 05:30N 42°23' W 071°04'0 0.0
2017-Aug-13 05:00N 42°23' W 071°04'1 1.1
2017-Aug-13 04:31N 42°23' W 071°03'2 3.9
2017-Aug-13 04:01N 42°21' W 071°02'2 3.3
2017-Aug-13 03:30N 42°23' W 071°03'0 0.0
2017-Aug-13 03:00N 42°23' W 071°03'0 0.0
2017-Aug-13 02:30N 42°23' W 071°03'0 0.0
2017-Aug-13 02:00N 42°23' W 071°03'0 0.0
2017-Aug-13 01:30N 42°23' W 071°03'0 0.0
2017-Aug-13 00:59N 42°23' W 071°03'0 0.0
2017-Aug-13 00:30N 42°23' W 071°03'0 0.0
2017-Aug-13 00:00N 42°23' W 071°03'0 0.0
2017-Aug-12 23:30N 42°23' W 071°03'0 0.0
2017-Aug-12 23:00N 42°23' W 071°03'3 6.3
2017-Aug-12 22:30N 42°20' W 071°00'2 3.6
2017-Aug-12 22:00N 42°21' W 071°02'2 4.1
2017-Aug-12 21:30N 42°23' W 071°03'0 0.7
2017-Aug-12 21:00N 42°23' W 071°04'0 0.0
2017-Aug-12 20:30N 42°23' W 071°04'1 1.6
2017-Aug-12 20:00N 42°23' W 071°03'0 0.5
2017-Aug-12 19:30N 42°23' W 071°03'0 0.6
2017-Aug-12 19:00N 42°23' W 071°03'0 0.9
2017-Aug-12 18:31N 42°23' W 071°02'1 2.5
2017-Aug-12 18:00N 42°24' W 071°01'1 1.7
2017-Aug-12 17:30N 42°23' W 071°01'1 1.8
2017-Aug-12 17:00N 42°23' W 071°03'1 2.5
2017-Aug-12 16:30N 42°24' W 071°01'1 2.5
2017-Aug-12 16:00N 42°23' W 071°03'0 0.5
2017-Aug-12 15:30N 42°23' W 071°03'0 0.0
2017-Aug-12 15:00N 42°23' W 071°03'0 0.0
2017-Aug-12 14:30N 42°23' W 071°03'0 0.0
2017-Aug-12 14:00N 42°23' W 071°03'0 0.0
2017-Aug-12 13:30N 42°23' W 071°03'0 0.0
2017-Aug-12 13:01N 42°23' W 071°03'1 1.6
2017-Aug-12 12:30N 42°23' W 071°02'0 0.1
2017-Aug-12 12:00N 42°23' W 071°01'1 1.5
2017-Aug-12 11:30N 42°24' W 071°01'1 2.1
2017-Aug-12 11:00N 42°23' W 071°02'1 1.8
2017-Aug-12 10:30N 42°22' W 071°03'1 2.9
2017-Aug-12 10:00N 42°23' W 071°01'1 1.1
2017-Aug-12 09:30N 42°24' W 071°01'2 3.3
2017-Aug-12 09:00N 42°23' W 071°03'2 5.0
2017-Aug-12 08:30N 42°21' W 071°01'1 1.3
2017-Aug-12 08:00N 42°20' W 071°00'0 0.3
2017-Aug-12 07:30N 42°20' W 071°00'3 6.3
2017-Aug-12 07:00N 42°23' W 071°03'0 0.7
2017-Aug-12 06:30N 42°23' W 071°03'0 0.1
2017-Aug-12 06:00N 42°23' W 071°03'0 0.0
2017-Aug-12 05:30N 42°23' W 071°03'0 0.0
2017-Aug-12 05:00N 42°23' W 071°03'0 0.0
2017-Aug-12 04:30N 42°23' W 071°03'0 0.0
2017-Aug-12 04:00N 42°23' W 071°03'0 0.0
2017-Aug-12 03:30N 42°23' W 071°03'0 0.0
2017-Aug-12 03:00N 42°23' W 071°03'0 0.0
2017-Aug-12 02:30N 42°23' W 071°03'0 0.0
2017-Aug-12 02:00N 42°23' W 071°03'0 0.0
2017-Aug-12 01:30N 42°23' W 071°03'0 0.0
2017-Aug-12 01:00N 42°23' W 071°03'0 0.0
2017-Aug-12 00:30N 42°23' W 071°03'0 0.0
2017-Aug-12 00:00N 42°23' W 071°03'0 0.0
2017-Aug-11 23:30N 42°23' W 071°03'0 0.9
2017-Aug-11 23:00N 42°23' W 071°02'1 1.9
2017-Aug-11 22:30N 42°24' W 071°01'1 1.3
2017-Aug-11 22:00N 42°23' W 071°02'1 1.5
2017-Aug-11 21:31N 42°23' W 071°03'2 3.3
2017-Aug-11 21:00N 42°24' W 071°01'1 2.5
2017-Aug-11 20:30N 42°23' W 071°02'0 1.0
2017-Aug-11 20:00N 42°23' W 071°03'0 0.0
2017-Aug-11 19:30N 42°23' W 071°03'0 0.0
2017-Aug-11 19:00N 42°23' W 071°03'2 4.6
2017-Aug-11 18:30N 42°21' W 071°02'1 1.1
2017-Aug-11 18:00N 42°21' W 071°02'3 5.3
2017-Aug-11 17:30N 42°23' W 071°04'0 0.0
2017-Aug-11 17:00N 42°23' W 071°04'1 1.7
2017-Aug-11 16:30N 42°23' W 071°03'2 4.4
2017-Aug-11 16:00N 42°21' W 071°01'3 5.9
2017-Aug-11 15:30N 42°20' W 070°58'1 1.2
2017-Aug-11 15:00N 42°20' W 070°57'6 5.6
2017-Aug-11 14:00N 42°15' W 070°58'0 0.7
2017-Aug-11 13:30N 42°14' W 070°58'1 1.2
2017-Aug-11 13:00N 42°15' W 070°58'2 3.1
2017-Aug-11 12:30N 42°16' W 070°56'3 5.2
2017-Aug-11 12:01N 42°18' W 070°55'2 4.7
2017-Aug-11 11:30N 42°19' W 070°53'4 7.3
2017-Aug-11 11:00N 42°20' W 070°57'3 6.9
2017-Aug-11 10:30N 42°21' W 071°02'2 3.4
2017-Aug-11 10:00N 42°23' W 071°03'0 0.0
2017-Aug-11 09:31N 42°23' W 071°03'0 0.0
2017-Aug-11 09:00N 42°23' W 071°03'0 0.0
2017-Aug-11 08:30N 42°23' W 071°03'2 3.7
2017-Aug-11 08:00N 42°21' W 071°02'2 3.7
2017-Aug-11 07:30N 42°23' W 071°03'0 0.0
2017-Aug-11 07:00N 42°23' W 071°03'0 0.0
2017-Aug-11 06:30N 42°23' W 071°03'0 0.0
2017-Aug-11 06:00N 42°23' W 071°03'0 0.0
2017-Aug-11 05:30N 42°23' W 071°03'0 0.0
2017-Aug-11 05:00N 42°23' W 071°03'0 0.6
2017-Aug-11 04:30N 42°23' W 071°03'0 0.7
2017-Aug-11 04:00N 42°23' W 071°03'0 0.1
2017-Aug-11 03:31N 42°23' W 071°03'0 0.0
2017-Aug-11 03:00N 42°23' W 071°03'0 0.0
2017-Aug-11 02:30N 42°23' W 071°03'0 0.0
2017-Aug-11 02:00N 42°23' W 071°03'0 0.0
2017-Aug-11 01:30N 42°23' W 071°03'0 0.0
2017-Aug-11 01:00N 42°23' W 071°03'0 0.0
2017-Aug-11 00:30N 42°23' W 071°03'0 0.0
2017-Aug-11 00:00N 42°23' W 071°03'0 0.0
2017-Aug-10 23:30N 42°23' W 071°03'0 0.0
2017-Aug-10 23:00N 42°23' W 071°03'0 0.0
2017-Aug-10 22:31N 42°23' W 071°03'0 0.0
2017-Aug-10 22:00N 42°23' W 071°03'0 0.0
2017-Aug-10 21:30N 42°23' W 071°03'0 0.0
2017-Aug-10 21:01N 42°23' W 071°03'2 3.3
2017-Aug-10 20:30N 42°24' W 071°01'1 2.5
2017-Aug-10 20:00N 42°23' W 071°02'1 2.2
2017-Aug-10 19:30N 42°22' W 071°03'1 2.6
2017-Aug-10 19:00N 42°23' W 071°02'0 0.2
2017-Aug-10 18:30N 42°23' W 071°01'0 0.1
2017-Aug-10 18:00N 42°23' W 071°01'0 0.1
2017-Aug-10 17:30N 42°23' W 071°01'1 1.8
2017-Aug-10 17:00N 42°23' W 071°03'1 1.4
2017-Aug-10 16:31N 42°22' W 071°03'4 7.5
2017-Aug-10 16:00N 42°20' W 070°59'5 9.9
2017-Aug-10 15:30N 42°23' W 070°53'3 6.4
2017-Aug-10 15:00N 42°25' W 070°50'0 0.0
2017-Aug-10 14:30N 42°25' W 070°50'0 0.0
2017-Aug-10 14:00N 42°25' W 070°50'0 0.0
2017-Aug-10 13:30N 42°25' W 070°50'2 4.3
2017-Aug-10 13:00N 42°24' W 070°52'5 9.6
2017-Aug-10 12:30N 42°20' W 070°57'4 8.8
2017-Aug-10 12:01N 42°22' W 071°02'1 2.5
2017-Aug-10 11:30N 42°23' W 071°03'0 0.2
2017-Aug-10 11:00N 42°23' W 071°03'0 0.9
2017-Aug-10 10:30N 42°23' W 071°03'0 0.2
2017-Aug-10 10:00N 42°23' W 071°03'2 4.3
2017-Aug-10 09:31N 42°21' W 071°02'2 3.3
2017-Aug-10 09:00N 42°23' W 071°03'0 0.3
2017-Aug-10 08:30N 42°23' W 071°03'0 0.0
2017-Aug-10 08:00N 42°23' W 071°03'0 0.0
2017-Aug-10 07:31N 42°23' W 071°03'0 0.0
2017-Aug-10 07:00N 42°23' W 071°03'0 0.0
2017-Aug-10 06:30N 42°23' W 071°03'0 0.0
2017-Aug-10 06:00N 42°23' W 071°03'0 0.0
2017-Aug-10 05:30N 42°23' W 071°03'0 0.0
2017-Aug-10 05:00N 42°23' W 071°03'0 0.0
2017-Aug-10 04:30N 42°23' W 071°03'0 0.0
2017-Aug-10 04:00N 42°23' W 071°03'0 0.0
2017-Aug-10 03:30N 42°23' W 071°03'0 0.0
2017-Aug-10 03:00N 42°23' W 071°03'0 0.0
2017-Aug-10 02:30N 42°23' W 071°03'0 0.0
2017-Aug-10 01:59N 42°23' W 071°03'0 0.0
2017-Aug-10 01:30N 42°23' W 071°03'0 0.0
2017-Aug-10 01:00N 42°23' W 071°03'0 0.0
2017-Aug-10 00:30N 42°23' W 071°03'0 0.0
2017-Aug-10 00:00N 42°23' W 071°03'0 0.0
2017-Aug-09 23:30N 42°23' W 071°03'0 0.0
2017-Aug-09 23:00N 42°23' W 071°03'0 0.0
2017-Aug-09 22:30N 42°23' W 071°03'0 0.0
2017-Aug-09 22:00N 42°23' W 071°03'0 0.0
2017-Aug-09 21:30N 42°23' W 071°03'0 0.0
2017-Aug-09 21:00N 42°23' W 071°03'0 0.0
2017-Aug-09 20:30N 42°23' W 071°03'0 0.0
2017-Aug-09 20:00N 42°23' W 071°03'0 0.0
2017-Aug-09 19:30N 42°23' W 071°03'0 0.0
2017-Aug-09 18:58N 42°23' W 071°03'0 0.0
2017-Aug-09 18:30N 42°23' W 071°03'0 0.0
2017-Aug-09 18:00N 42°23' W 071°03'0 0.0
2017-Aug-09 17:30N 42°23' W 071°03'0 0.0
2017-Aug-09 17:00N 42°23' W 071°03'0 0.0
2017-Aug-09 16:30N 42°23' W 071°03'0 0.0
2017-Aug-09 16:00N 42°23' W 071°03'2 3.4
2017-Aug-09 15:30N 42°24' W 071°01'0 0.8
2017-Aug-09 15:00N 42°23' W 071°01'1 2.5
2017-Aug-09 14:30N 42°23' W 071°03'2 4.0
2017-Aug-09 14:00N 42°21' W 071°02'2 3.6
2017-Aug-09 13:30N 42°23' W 071°03'0 0.0
2017-Aug-09 13:00N 42°23' W 071°03'0 0.0
2017-Aug-09 12:30N 42°23' W 071°03'0 0.0
2017-Aug-09 12:00N 42°23' W 071°03'0 0.0
2017-Aug-09 11:30N 42°23' W 071°03'0 0.0
2017-Aug-09 11:00N 42°23' W 071°03'0 0.0
2017-Aug-09 10:30N 42°23' W 071°03'0 0.0
2017-Aug-09 10:00N 42°23' W 071°03'0 0.0
2017-Aug-09 09:30N 42°23' W 071°03'0 0.0
2017-Aug-09 09:01N 42°23' W 071°03'0 0.0
2017-Aug-09 08:30N 42°23' W 071°03'0 0.0
2017-Aug-09 08:00N 42°23' W 071°03'0 0.0
2017-Aug-09 07:30N 42°23' W 071°03'0 0.0
2017-Aug-09 07:00N 42°23' W 071°03'0 0.0
2017-Aug-09 06:30N 42°23' W 071°03'0 0.0
2017-Aug-09 06:00N 42°23' W 071°03'0 0.0
2017-Aug-09 03:51N 42°23' W 071°03'0 0.0
2017-Aug-09 03:28N 42°23' W 071°03'0 0.0
2017-Aug-09 03:00N 42°23' W 071°03'0 0.0
2017-Aug-09 02:29N 42°23' W 071°03'0 0.0
2017-Aug-09 01:58N 42°23' W 071°03'0 0.0
2017-Aug-09 01:29N 42°23' W 071°03'0 0.0
2017-Aug-09 00:59N 42°23' W 071°03'0 0.2
2017-Aug-09 00:30N 42°23' W 071°03'3 5.7
2017-Aug-09 00:00N 42°20' W 071°00'0 1.0
2017-Aug-08 23:30N 42°21' W 071°01'3 5.0
2017-Aug-08 23:00N 42°23' W 071°03'0 0.0
2017-Aug-08 22:30N 42°23' W 071°03'0 0.0
2017-Aug-08 22:00N 42°23' W 071°03'0 0.0
2017-Aug-08 21:30N 42°23' W 071°03'0 0.0
2017-Aug-08 21:00N 42°23' W 071°03'0 0.0
2017-Aug-08 20:30N 42°23' W 071°03'0 0.0
2017-Aug-08 19:59N 42°23' W 071°03'0 0.0
2017-Aug-08 19:30N 42°23' W 071°03'0 0.0
2017-Aug-08 19:00N 42°23' W 071°03'0 0.0
2017-Aug-08 18:30N 42°23' W 071°03'0 0.0
2017-Aug-08 18:00N 42°23' W 071°03'0 0.0
2017-Aug-08 17:30N 42°23' W 071°03'0 0.2
2017-Aug-08 17:00N 42°23' W 071°03'0 0.7
2017-Aug-08 16:30N 42°23' W 071°03'0 0.8
2017-Aug-08 16:00N 42°23' W 071°03'0 0.0
2017-Aug-08 15:30N 42°23' W 071°03'0 0.0
2017-Aug-08 15:00N 42°23' W 071°03'0 0.0
2017-Aug-08 14:30N 42°23' W 071°03'0 0.0
2017-Aug-08 14:00N 42°23' W 071°03'0 0.0
2017-Aug-08 13:22N 42°23' W 071°03'0 0.0
2017-Aug-08 12:59N 42°23' W 071°03'0 0.0
2017-Aug-08 12:30N 42°23' W 071°03'0 0.0
2017-Aug-08 11:59N 42°23' W 071°03'3 6.0
2017-Aug-08 11:30N 42°20' W 071°00'4 7.6
2017-Aug-08 11:00N 42°19' W 070°56'0 0.6
2017-Aug-08 10:30N 42°18' W 070°56'3 6.9
2017-Aug-08 10:01N 42°15' W 070°57'0 0.4
2017-Aug-08 09:30N 42°15' W 070°57'4 8.4
2017-Aug-08 09:00N 42°19' W 070°55'4 9.0
2017-Aug-08 08:30N 42°20' W 071°01'1 1.0
2017-Aug-08 08:00N 42°21' W 071°01'0 0.0
2017-Aug-08 07:30N 42°21' W 071°01'0 0.0
2017-Aug-08 07:00N 42°21' W 071°01'0 0.0
2017-Aug-08 06:30N 42°21' W 071°01'0 0.0
2017-Aug-08 06:00N 42°21' W 071°01'0 0.0
2017-Aug-08 05:30N 42°21' W 071°01'0 0.0
2017-Aug-08 05:00N 42°21' W 071°01'0 0.0
2017-Aug-08 04:30N 42°21' W 071°01'0 0.0
2017-Aug-08 04:00N 42°21' W 071°01'0 0.0
2017-Aug-08 03:30N 42°21' W 071°01'0 0.9
2017-Aug-08 03:00N 42°21' W 071°01'  
Track history (hours):
 
Tides and Currents Weather Stations Pressure Air Temp Water Temp Dewpoint Dewpoint Depression Visibility Wind Speed Wind Dir Waves Ship Positions

Justice

Owner: Boston Towing & Transportation, Boston, MA. More information available from US FCC via Universal Licensing System and Coast Guard Vessel Documentation Center.

Last reported at 2017-Aug-18 03:00 UTC. Time now 2017-Aug-18 03:06 UTC.
Position N 42°23' W 071°03'.

Length 30 m; draft 5.8 m.

Type: Tug. MMSI: 367513010.

Date/timePositionNaut miles runAvg speedWind from/ knotsBaromVisibWave heightAir tempDewpointWater temp
2017-Aug-18 03:00N 42°23' W 071°03'0 0.0
2017-Aug-18 02:29N 42°23' W 071°03'1 1.7
2017-Aug-18 02:00N 42°23' W 071°02'1 1.3
2017-Aug-18 01:30N 42°23' W 071°02'0 0.8
2017-Aug-18 01:01N 42°23' W 071°03'0 0.0
2017-Aug-18 00:30N 42°23' W 071°03'0 0.0
2017-Aug-18 00:00N 42°23' W 071°03'0 0.0
2017-Aug-17 23:30N 42°23' W 071°03'0 0.0
2017-Aug-17 23:00N 42°23' W 071°03'0 0.0
2017-Aug-17 22:30N 42°23' W 071°03'0 0.0
2017-Aug-17 22:00N 42°23' W 071°03'0 0.0
2017-Aug-17 21:30N 42°23' W 071°03'0 0.0
2017-Aug-17 21:00N 42°23' W 071°03'0 0.1
2017-Aug-17 20:30N 42°23' W 071°03'1 1.5
2017-Aug-17 20:00N 42°23' W 071°04'1 1.5
2017-Aug-17 19:30N 42°23' W 071°03'0 1.0
2017-Aug-17 19:00N 42°23' W 071°03'1 1.1
2017-Aug-17 18:30N 42°23' W 071°03'0 0.0
2017-Aug-17 18:00N 42°23' W 071°03'0 0.0
2017-Aug-17 17:31N 42°23' W 071°03'0 0.0
2017-Aug-17 17:00N 42°23' W 071°03'0 0.0
2017-Aug-17 16:30N 42°23' W 071°03'0 0.0
2017-Aug-17 16:00N 42°23' W 071°03'0 0.0
2017-Aug-17 15:31N 42°23' W 071°03'0 0.1
2017-Aug-17 15:00N 42°23' W 071°03'0 0.0
2017-Aug-17 14:30N 42°23' W 071°03'0 0.0
2017-Aug-17 14:00N 42°23' W 071°03'0 0.0
2017-Aug-17 13:30N 42°23' W 071°03'0 0.0
2017-Aug-17 13:00N 42°23' W 071°03'0 0.8
2017-Aug-17 12:30N 42°23' W 071°02'1 2.4
2017-Aug-17 12:01N 42°24' W 071°01'0 1.0
2017-Aug-17 11:30N 42°23' W 071°01'2 3.1
2017-Aug-17 11:00N 42°23' W 071°03'0 0.3
2017-Aug-17 10:30N 42°23' W 071°03'2 3.9
2017-Aug-17 10:00N 42°21' W 071°02'1 1.8
2017-Aug-17 09:30N 42°22' W 071°03'1 1.4
2017-Aug-17 09:00N 42°23' W 071°03'0 0.0
2017-Aug-17 08:30N 42°23' W 071°03'0 0.0
2017-Aug-17 08:00N 42°23' W 071°03'0 0.0
2017-Aug-17 07:30N 42°23' W 071°03'0 0.0
2017-Aug-17 07:00N 42°23' W 071°03'0 0.0
2017-Aug-17 06:31N 42°23' W 071°03'0 0.0
2017-Aug-17 06:00N 42°23' W 071°03'1 1.7
2017-Aug-17 05:30N 42°23' W 071°01'0 0.0
2017-Aug-17 05:00N 42°23' W 071°01'1 1.6
2017-Aug-17 04:31N 42°24' W 071°01'1 2.2
2017-Aug-17 04:00N 42°23' W 071°02'2 3.2
2017-Aug-17 03:30N 42°22' W 071°02'1 1.7
2017-Aug-17 03:00N 42°22' W 071°03'1 2.6
2017-Aug-17 02:30N 42°23' W 071°01'1 1.7
2017-Aug-17 02:00N 42°24' W 071°01'1 2.4
2017-Aug-17 01:31N 42°23' W 071°02'1 1.0
2017-Aug-17 01:00N 42°23' W 071°03'0 0.0
2017-Aug-17 00:30N 42°23' W 071°03'0 0.0
2017-Aug-17 00:00N 42°23' W 071°03'1 2.7
2017-Aug-16 23:30N 42°24' W 071°01'0 0.0
2017-Aug-16 23:00N 42°24' W 071°01'1 2.7
2017-Aug-16 22:30N 42°23' W 071°03'0 0.5
2017-Aug-16 22:00N 42°23' W 071°03'0 0.0
2017-Aug-16 21:30N 42°23' W 071°03'0 0.0
2017-Aug-16 21:00N 42°23' W 071°03'0 0.0
2017-Aug-16 20:28N 42°23' W 071°03'0 0.0
2017-Aug-16 19:59N 42°23' W 071°03'0 0.1
2017-Aug-16 19:29N 42°23' W 071°03'0 0.0
2017-Aug-16 19:00N 42°23' W 071°03'0 0.0
2017-Aug-16 18:30N 42°23' W 071°03'0 0.0
2017-Aug-16 18:00N 42°23' W 071°03'0 0.0
2017-Aug-16 17:30N 42°23' W 071°03'0 0.0
2017-Aug-16 17:00N 42°23' W 071°03'0 0.0
2017-Aug-16 16:30N 42°23' W 071°03'0 0.0
2017-Aug-16 16:00N 42°23' W 071°03'0 0.0
2017-Aug-16 15:30N 42°23' W 071°03'0 0.0
2017-Aug-16 15:00N 42°23' W 071°03'0 0.0
2017-Aug-16 14:30N 42°23' W 071°03'0 0.0
2017-Aug-16 13:59N 42°23' W 071°03'0 0.0
2017-Aug-16 13:31N 42°23' W 071°03'0 0.0
2017-Aug-16 13:00N 42°23' W 071°03'0 0.0
2017-Aug-16 12:30N 42°23' W 071°03'1 1.0
2017-Aug-16 12:01N 42°22' W 071°03'4 7.1
2017-Aug-16 11:30N 42°20' W 070°59'3 6.1
2017-Aug-16 11:00N 42°18' W 070°56'4 7.0
2017-Aug-16 10:29N 42°15' W 070°57'1 2.1
2017-Aug-16 10:00N 42°14' W 070°58'0 0.8
2017-Aug-16 09:30N 42°15' W 070°58'3 6.2
2017-Aug-16 09:00N 42°17' W 070°56'3 6.8
2017-Aug-16 08:30N 42°20' W 070°58'4 8.5
2017-Aug-16 08:01N 42°22' W 071°03'0 0.8
2017-Aug-16 07:30N 42°23' W 071°03'0 0.0
2017-Aug-16 07:00N 42°23' W 071°03'0 0.0
2017-Aug-16 06:30N 42°23' W 071°03'0 0.0
2017-Aug-16 06:00N 42°23' W 071°03'0 0.0
2017-Aug-16 05:30N 42°23' W 071°03'0 0.0
2017-Aug-16 04:58N 42°23' W 071°03'0 0.0
2017-Aug-16 04:30N 42°23' W 071°03'0 0.0
2017-Aug-16 04:00N 42°23' W 071°03'0 0.0
2017-Aug-16 03:30N 42°23' W 071°03'0 0.0
2017-Aug-16 03:00N 42°23' W 071°03'0 0.0
2017-Aug-16 02:30N 42°23' W 071°03'0 0.0
2017-Aug-16 02:00N 42°23' W 071°03'1 3.0
2017-Aug-16 01:30N 42°24' W 071°01'0 0.5
2017-Aug-16 01:00N 42°24' W 071°01'1 1.6
2017-Aug-16 00:30N 42°23' W 071°01'1 2.4
2017-Aug-16 00:00N 42°23' W 071°03'0 0.3
2017-Aug-15 23:27N 42°23' W 071°03'2 4.3
2017-Aug-15 23:00N 42°21' W 071°01'1 1.3
2017-Aug-15 22:30N 42°21' W 071°01'2 3.4
2017-Aug-15 22:00N 42°22' W 071°03'1 2.8
2017-Aug-15 21:30N 42°23' W 071°02'0 0.2
2017-Aug-15 21:00N 42°23' W 071°01'0 0.0
2017-Aug-15 20:30N 42°23' W 071°01'0 0.0
2017-Aug-15 20:00N 42°23' W 071°01'0 0.9
2017-Aug-15 19:30N 42°23' W 071°02'0 1.0
2017-Aug-15 19:00N 42°23' W 071°03'0 0.1
2017-Aug-15 18:30N 42°23' W 071°03'0 0.1
2017-Aug-15 18:00N 42°23' W 071°03'0 0.0
2017-Aug-15 17:30N 42°23' W 071°03'0 0.0
2017-Aug-15 17:00N 42°23' W 071°03'0 0.0
2017-Aug-15 16:21N 42°23' W 071°03'0 0.0
2017-Aug-15 16:00N 42°23' W 071°03'0 0.0
2017-Aug-15 15:29N 42°23' W 071°03'0 0.0
2017-Aug-15 15:00N 42°23' W 071°03'0 0.0
2017-Aug-15 14:29N 42°23' W 071°03'0 0.0
2017-Aug-15 14:00N 42°23' W 071°03'0 0.0
2017-Aug-15 13:30N 42°23' W 071°03'0 0.0
2017-Aug-15 13:00N 42°23' W 071°03'0 0.0
2017-Aug-15 12:30N 42°23' W 071°03'0 0.0
2017-Aug-15 12:00N 42°23' W 071°03'0 0.4
2017-Aug-15 11:30N 42°23' W 071°03'1 1.5
2017-Aug-15 10:59N 42°23' W 071°02'1 1.7
2017-Aug-15 10:30N 42°23' W 071°03'0 0.0
2017-Aug-15 10:00N 42°23' W 071°03'0 0.0
2017-Aug-15 09:30N 42°23' W 071°03'0 0.0
2017-Aug-15 09:00N 42°23' W 071°03'0 0.0
2017-Aug-15 08:30N 42°23' W 071°03'2 4.5
2017-Aug-15 08:01N 42°21' W 071°01'0 0.4
2017-Aug-15 07:30N 42°21' W 071°01'1 2.8
2017-Aug-15 07:00N 42°22' W 071°02'1 2.3
2017-Aug-15 06:30N 42°23' W 071°03'0 0.0
2017-Aug-15 06:00N 42°23' W 071°03'0 0.0
2017-Aug-15 05:30N 42°23' W 071°03'0 0.0
2017-Aug-15 05:00N 42°23' W 071°03'0 0.0
2017-Aug-15 04:30N 42°23' W 071°03'0 0.0
2017-Aug-15 04:00N 42°23' W 071°03'0 0.0
2017-Aug-15 03:22N 42°23' W 071°03'0 0.0
2017-Aug-15 03:00N 42°23' W 071°03'0 0.0
2017-Aug-15 02:30N 42°23' W 071°03'0 0.0
2017-Aug-15 02:00N 42°23' W 071°03'0 0.0
2017-Aug-15 01:30N 42°23' W 071°03'0 0.0
2017-Aug-15 01:00N 42°23' W 071°03'0 0.6
2017-Aug-15 00:30N 42°23' W 071°03'0 0.0
2017-Aug-15 00:01N 42°23' W 071°03'0 0.0
2017-Aug-14 23:30N 42°23' W 071°03'3 5.6
2017-Aug-14 23:00N 42°21' W 071°01'4 7.9
2017-Aug-14 22:30N 42°19' W 070°56'4 8.8
2017-Aug-14 22:00N 42°15' W 070°58'1 1.3
2017-Aug-14 21:30N 42°14' W 070°58'0 0.4
2017-Aug-14 21:00N 42°14' W 070°58'1 1.7
2017-Aug-14 20:31N 42°15' W 070°57'3 6.2
2017-Aug-14 20:00N 42°18' W 070°55'1 2.9
2017-Aug-14 19:30N 42°19' W 070°55'4 7.6
2017-Aug-14 19:00N 42°20' W 070°60'3 7.0
2017-Aug-14 18:30N 42°23' W 071°03'0 0.2
2017-Aug-14 18:01N 42°23' W 071°03'0 0.0
2017-Aug-14 17:30N 42°23' W 071°03'0 0.0
2017-Aug-14 17:00N 42°23' W 071°03'0 0.0
2017-Aug-14 16:30N 42°23' W 071°03'1 2.7
2017-Aug-14 16:01N 42°22' W 071°02'1 2.1
2017-Aug-14 15:30N 42°21' W 071°01'0 0.5
2017-Aug-14 15:00N 42°21' W 071°01'2 3.7
2017-Aug-14 14:30N 42°20' W 070°59'1 1.9
2017-Aug-14 14:01N 42°20' W 070°57'3 6.0
2017-Aug-14 13:30N 42°21' W 071°01'0 0.9
2017-Aug-14 13:00N 42°21' W 071°02'2 3.6
2017-Aug-14 12:30N 42°23' W 071°03'0 0.0
2017-Aug-14 12:00N 42°23' W 071°03'0 0.0
2017-Aug-14 11:30N 42°23' W 071°03'0 0.0
2017-Aug-14 11:00N 42°23' W 071°03'0 0.2
2017-Aug-14 10:30N 42°23' W 071°03'1 1.6
2017-Aug-14 10:00N 42°23' W 071°02'1 1.5
2017-Aug-14 09:30N 42°23' W 071°03'3 5.5
2017-Aug-14 09:00N 42°21' W 071°01'0 0.1
2017-Aug-14 08:30N 42°21' W 071°01'2 4.2
2017-Aug-14 08:00N 42°20' W 070°58'1 1.0
2017-Aug-14 07:30N 42°20' W 070°58'2 3.3
2017-Aug-14 07:00N 42°20' W 070°60'1 1.8
2017-Aug-14 06:30N 42°21' W 071°01'2 4.7
2017-Aug-14 06:00N 42°23' W 071°03'0 0.4
2017-Aug-14 05:30N 42°23' W 071°03'0 0.0
2017-Aug-14 05:00N 42°23' W 071°03'0 0.0
2017-Aug-14 04:30N 42°23' W 071°03'0 0.0
2017-Aug-14 04:00N 42°23' W 071°03'0 0.0
2017-Aug-14 03:28N 42°23' W 071°03'0 0.0
2017-Aug-14 03:00N 42°23' W 071°03'0 0.0
2017-Aug-14 02:30N 42°23' W 071°03'0 0.0
2017-Aug-14 02:00N 42°23' W 071°03'0 0.0
2017-Aug-14 01:30N 42°23' W 071°03'0 0.0
2017-Aug-14 01:00N 42°23' W 071°03'0 0.0
2017-Aug-14 00:30N 42°23' W 071°03'0 0.0
2017-Aug-14 00:00N 42°23' W 071°03'1 1.3
2017-Aug-13 23:30N 42°23' W 071°02'1 2.1
2017-Aug-13 23:00N 42°24' W 071°01'1 2.4
2017-Aug-13 22:31N 42°23' W 071°02'0 0.9
2017-Aug-13 22:00N 42°23' W 071°03'0 0.0
2017-Aug-13 21:30N 42°23' W 071°03'0 0.0
2017-Aug-13 21:00N 42°23' W 071°03'0 0.0
2017-Aug-13 20:30N 42°23' W 071°03'0 0.0
2017-Aug-13 19:59N 42°23' W 071°03'0 0.0
2017-Aug-13 19:29N 42°23' W 071°03'0 0.1
2017-Aug-13 19:00N 42°23' W 071°03'0 0.0
2017-Aug-13 18:29N 42°23' W 071°03'0 0.0
2017-Aug-13 18:00N 42°23' W 071°03'0 0.1
2017-Aug-13 17:30N 42°23' W 071°03'0 0.0
2017-Aug-13 16:56N 42°23' W 071°03'0 0.0
2017-Aug-13 16:30N 42°23' W 071°03'0 0.0
2017-Aug-13 15:59N 42°23' W 071°03'0 0.0
2017-Aug-13 15:30N 42°23' W 071°03'0 0.0
2017-Aug-13 14:59N 42°23' W 071°03'0 0.0
2017-Aug-13 14:30N 42°23' W 071°03'0 0.0
2017-Aug-13 14:00N 42°23' W 071°03'0 0.0
2017-Aug-13 13:30N 42°23' W 071°03'0 0.0
2017-Aug-13 13:00N 42°23' W 071°03'0 0.0
2017-Aug-13 12:30N 42°23' W 071°03'0 0.2
2017-Aug-13 12:00N 42°23' W 071°03'2 3.5
2017-Aug-13 11:30N 42°21' W 071°02'2 4.2
2017-Aug-13 11:00N 42°23' W 071°01'1 1.4
2017-Aug-13 10:30N 42°24' W 071°01'1 2.2
2017-Aug-13 10:00N 42°23' W 071°02'1 1.5
2017-Aug-13 09:30N 42°23' W 071°03'1 2.0
2017-Aug-13 09:00N 42°23' W 071°02'3 5.2
2017-Aug-13 08:30N 42°21' W 071°01'2 3.7
2017-Aug-13 08:01N 42°20' W 070°59'2 4.1
2017-Aug-13 07:30N 42°21' W 071°01'2 4.6
2017-Aug-13 07:00N 42°23' W 071°02'0 0.0
2017-Aug-13 06:27N 42°23' W 071°02'1 1.9
2017-Aug-13 06:00N 42°23' W 071°03'1 1.2
2017-Aug-13 05:30N 42°23' W 071°04'0 0.0
2017-Aug-13 05:00N 42°23' W 071°04'1 1.1
2017-Aug-13 04:31N 42°23' W 071°03'2 3.9
2017-Aug-13 04:01N 42°21' W 071°02'2 3.3
2017-Aug-13 03:30N 42°23' W 071°03'0 0.0
2017-Aug-13 03:00N 42°23' W 071°03'0 0.0
2017-Aug-13 02:30N 42°23' W 071°03'0 0.0
2017-Aug-13 02:00N 42°23' W 071°03'0 0.0
2017-Aug-13 01:30N 42°23' W 071°03'0 0.0
2017-Aug-13 00:59N 42°23' W 071°03'0 0.0
2017-Aug-13 00:30N 42°23' W 071°03'0 0.0
2017-Aug-13 00:00N 42°23' W 071°03'0 0.0
2017-Aug-12 23:30N 42°23' W 071°03'0 0.0
2017-Aug-12 23:00N 42°23' W 071°03'3 6.3
2017-Aug-12 22:30N 42°20' W 071°00'2 3.6
2017-Aug-12 22:00N 42°21' W 071°02'2 4.1
2017-Aug-12 21:30N 42°23' W 071°03'0 0.7
2017-Aug-12 21:00N 42°23' W 071°04'0 0.0
2017-Aug-12 20:30N 42°23' W 071°04'1 1.6
2017-Aug-12 20:00N 42°23' W 071°03'0 0.5
2017-Aug-12 19:30N 42°23' W 071°03'0 0.6
2017-Aug-12 19:00N 42°23' W 071°03'0 0.9
2017-Aug-12 18:31N 42°23' W 071°02'1 2.5
2017-Aug-12 18:00N 42°24' W 071°01'1 1.7
2017-Aug-12 17:30N 42°23' W 071°01'1 1.8
2017-Aug-12 17:00N 42°23' W 071°03'1 2.5
2017-Aug-12 16:30N 42°24' W 071°01'1 2.5
2017-Aug-12 16:00N 42°23' W 071°03'0 0.5
2017-Aug-12 15:30N 42°23' W 071°03'0 0.0
2017-Aug-12 15:00N 42°23' W 071°03'0 0.0
2017-Aug-12 14:30N 42°23' W 071°03'0 0.0
2017-Aug-12 14:00N 42°23' W 071°03'0 0.0
2017-Aug-12 13:30N 42°23' W 071°03'0 0.0
2017-Aug-12 13:01N 42°23' W 071°03'1 1.6
2017-Aug-12 12:30N 42°23' W 071°02'0 0.1
2017-Aug-12 12:00N 42°23' W 071°01'1 1.5
2017-Aug-12 11:30N 42°24' W 071°01'1 2.1
2017-Aug-12 11:00N 42°23' W 071°02'1 1.8
2017-Aug-12 10:30N 42°22' W 071°03'1 2.9
2017-Aug-12 10:00N 42°23' W 071°01'1 1.1
2017-Aug-12 09:30N 42°24' W 071°01'2 3.3
2017-Aug-12 09:00N 42°23' W 071°03'2 5.0
2017-Aug-12 08:30N 42°21' W 071°01'1 1.3
2017-Aug-12 08:00N 42°20' W 071°00'0 0.3
2017-Aug-12 07:30N 42°20' W 071°00'3 6.3
2017-Aug-12 07:00N 42°23' W 071°03'0 0.7
2017-Aug-12 06:30N 42°23' W 071°03'0 0.1
2017-Aug-12 06:00N 42°23' W 071°03'0 0.0
2017-Aug-12 05:30N 42°23' W 071°03'0 0.0
2017-Aug-12 05:00N 42°23' W 071°03'0 0.0
2017-Aug-12 04:30N 42°23' W 071°03'0 0.0
2017-Aug-12 04:00N 42°23' W 071°03'0 0.0
2017-Aug-12 03:30N 42°23' W 071°03'0 0.0
2017-Aug-12 03:00N 42°23' W 071°03'0 0.0
2017-Aug-12 02:30N 42°23' W 071°03'0 0.0
2017-Aug-12 02:00N 42°23' W 071°03'0 0.0
2017-Aug-12 01:30N 42°23' W 071°03'0 0.0
2017-Aug-12 01:00N 42°23' W 071°03'0 0.0
2017-Aug-12 00:30N 42°23' W 071°03'0 0.0
2017-Aug-12 00:00N 42°23' W 071°03'0 0.0
2017-Aug-11 23:30N 42°23' W 071°03'0 0.9
2017-Aug-11 23:00N 42°23' W 071°02'1 1.9
2017-Aug-11 22:30N 42°24' W 071°01'1 1.3
2017-Aug-11 22:00N 42°23' W 071°02'1 1.5
2017-Aug-11 21:31N 42°23' W 071°03'2 3.3
2017-Aug-11 21:00N 42°24' W 071°01'1 2.5
2017-Aug-11 20:30N 42°23' W 071°02'0 1.0
2017-Aug-11 20:00N 42°23' W 071°03'0 0.0
2017-Aug-11 19:30N 42°23' W 071°03'0 0.0
2017-Aug-11 19:00N 42°23' W 071°03'2 4.6
2017-Aug-11 18:30N 42°21' W 071°02'1 1.1
2017-Aug-11 18:00N 42°21' W 071°02'3 5.3
2017-Aug-11 17:30N 42°23' W 071°04'0 0.0
2017-Aug-11 17:00N 42°23' W 071°04'1 1.7
2017-Aug-11 16:30N 42°23' W 071°03'2 4.4
2017-Aug-11 16:00N 42°21' W 071°01'3 5.9
2017-Aug-11 15:30N 42°20' W 070°58'1 1.2
2017-Aug-11 15:00N 42°20' W 070°57'6 5.6
2017-Aug-11 14:00N 42°15' W 070°58'0 0.7
2017-Aug-11 13:30N 42°14' W 070°58'1 1.2
2017-Aug-11 13:00N 42°15' W 070°58'2 3.1
2017-Aug-11 12:30N 42°16' W 070°56'3 5.2
2017-Aug-11 12:01N 42°18' W 070°55'2 4.7
2017-Aug-11 11:30N 42°19' W 070°53'4 7.3
2017-Aug-11 11:00N 42°20' W 070°57'3 6.9
2017-Aug-11 10:30N 42°21' W 071°02'2 3.4
2017-Aug-11 10:00N 42°23' W 071°03'0 0.0
2017-Aug-11 09:31N 42°23' W 071°03'0 0.0
2017-Aug-11 09:00N 42°23' W 071°03'0 0.0
2017-Aug-11 08:30N 42°23' W 071°03'2 3.7
2017-Aug-11 08:00N 42°21' W 071°02'2 3.7
2017-Aug-11 07:30N 42°23' W 071°03'0 0.0
2017-Aug-11 07:00N 42°23' W 071°03'0 0.0
2017-Aug-11 06:30N 42°23' W 071°03'0 0.0
2017-Aug-11 06:00N 42°23' W 071°03'0 0.0
2017-Aug-11 05:30N 42°23' W 071°03'0 0.0
2017-Aug-11 05:00N 42°23' W 071°03'0 0.6
2017-Aug-11 04:30N 42°23' W 071°03'0 0.7
2017-Aug-11 04:00N 42°23' W 071°03'0 0.1
2017-Aug-11 03:31N 42°23' W 071°03'0 0.0
2017-Aug-11 03:00N 42°23' W 071°03'0 0.0
2017-Aug-11 02:30N 42°23' W 071°03'0 0.0
2017-Aug-11 02:00N 42°23' W 071°03'0 0.0
2017-Aug-11 01:30N 42°23' W 071°03'0 0.0
2017-Aug-11 01:00N 42°23' W 071°03'0 0.0
2017-Aug-11 00:30N 42°23' W 071°03'0 0.0
2017-Aug-11 00:00N 42°23' W 071°03'0 0.0
2017-Aug-10 23:30N 42°23' W 071°03'0 0.0
2017-Aug-10 23:00N 42°23' W 071°03'0 0.0
2017-Aug-10 22:31N 42°23' W 071°03'0 0.0
2017-Aug-10 22:00N 42°23' W 071°03'0 0.0
2017-Aug-10 21:30N 42°23' W 071°03'0 0.0
2017-Aug-10 21:01N 42°23' W 071°03'2 3.3
2017-Aug-10 20:30N 42°24' W 071°01'1 2.5
2017-Aug-10 20:00N 42°23' W 071°02'1 2.2
2017-Aug-10 19:30N 42°22' W 071°03'1 2.6
2017-Aug-10 19:00N 42°23' W 071°02'0 0.2
2017-Aug-10 18:30N 42°23' W 071°01'0 0.1
2017-Aug-10 18:00N 42°23' W 071°01'0 0.1
2017-Aug-10 17:30N 42°23' W 071°01'1 1.8
2017-Aug-10 17:00N 42°23' W 071°03'1 1.4
2017-Aug-10 16:31N 42°22' W 071°03'4 7.5
2017-Aug-10 16:00N 42°20' W 070°59'5 9.9
2017-Aug-10 15:30N 42°23' W 070°53'3 6.4
2017-Aug-10 15:00N 42°25' W 070°50'0 0.0
2017-Aug-10 14:30N 42°25' W 070°50'0 0.0
2017-Aug-10 14:00N 42°25' W 070°50'0 0.0
2017-Aug-10 13:30N 42°25' W 070°50'2 4.3
2017-Aug-10 13:00N 42°24' W 070°52'5 9.6
2017-Aug-10 12:30N 42°20' W 070°57'4 8.8
2017-Aug-10 12:01N 42°22' W 071°02'1 2.5
2017-Aug-10 11:30N 42°23' W 071°03'0 0.2
2017-Aug-10 11:00N 42°23' W 071°03'0 0.9
2017-Aug-10 10:30N 42°23' W 071°03'0 0.2
2017-Aug-10 10:00N 42°23' W 071°03'2 4.3
2017-Aug-10 09:31N 42°21' W 071°02'2 3.3
2017-Aug-10 09:00N 42°23' W 071°03'0 0.3
2017-Aug-10 08:30N 42°23' W 071°03'0 0.0
2017-Aug-10 08:00N 42°23' W 071°03'0 0.0
2017-Aug-10 07:31N 42°23' W 071°03'0 0.0
2017-Aug-10 07:00N 42°23' W 071°03'0 0.0
2017-Aug-10 06:30N 42°23' W 071°03'0 0.0
2017-Aug-10 06:00N 42°23' W 071°03'0 0.0
2017-Aug-10 05:30N 42°23' W 071°03'0 0.0
2017-Aug-10 05:00N 42°23' W 071°03'0 0.0
2017-Aug-10 04:30N 42°23' W 071°03'0 0.0
2017-Aug-10 04:00N 42°23' W 071°03'0 0.0
2017-Aug-10 03:30N 42°23' W 071°03'0 0.0
2017-Aug-10 03:00N 42°23' W 071°03'0 0.0
2017-Aug-10 02:30N 42°23' W 071°03'0 0.0
2017-Aug-10 01:59N 42°23' W 071°03'0 0.0
2017-Aug-10 01:30N 42°23' W 071°03'0 0.0
2017-Aug-10 01:00N 42°23' W 071°03'0 0.0
2017-Aug-10 00:30N 42°23' W 071°03'0 0.0
2017-Aug-10 00:00N 42°23' W 071°03'0 0.0
2017-Aug-09 23:30N 42°23' W 071°03'0 0.0
2017-Aug-09 23:00N 42°23' W 071°03'0 0.0
2017-Aug-09 22:30N 42°23' W 071°03'0 0.0
2017-Aug-09 22:00N 42°23' W 071°03'0 0.0
2017-Aug-09 21:30N 42°23' W 071°03'0 0.0
2017-Aug-09 21:00N 42°23' W 071°03'0 0.0
2017-Aug-09 20:30N 42°23' W 071°03'0 0.0
2017-Aug-09 20:00N 42°23' W 071°03'0 0.0
2017-Aug-09 19:30N 42°23' W 071°03'0 0.0
2017-Aug-09 18:58N 42°23' W 071°03'0 0.0
2017-Aug-09 18:30N 42°23' W 071°03'0 0.0
2017-Aug-09 18:00N 42°23' W 071°03'0 0.0
2017-Aug-09 17:30N 42°23' W 071°03'0 0.0
2017-Aug-09 17:00N 42°23' W 071°03'0 0.0
2017-Aug-09 16:30N 42°23' W 071°03'0 0.0
2017-Aug-09 16:00N 42°23' W 071°03'2 3.4
2017-Aug-09 15:30N 42°24' W 071°01'0 0.8
2017-Aug-09 15:00N 42°23' W 071°01'1 2.5
2017-Aug-09 14:30N 42°23' W 071°03'2 4.0
2017-Aug-09 14:00N 42°21' W 071°02'2 3.6
2017-Aug-09 13:30N 42°23' W 071°03'0 0.0
2017-Aug-09 13:00N 42°23' W 071°03'0 0.0
2017-Aug-09 12:30N 42°23' W 071°03'0 0.0
2017-Aug-09 12:00N 42°23' W 071°03'0 0.0
2017-Aug-09 11:30N 42°23' W 071°03'0 0.0
2017-Aug-09 11:00N 42°23' W 071°03'0 0.0
2017-Aug-09 10:30N 42°23' W 071°03'0 0.0
2017-Aug-09 10:00N 42°23' W 071°03'0 0.0
2017-Aug-09 09:30N 42°23' W 071°03'0 0.0
2017-Aug-09 09:01N 42°23' W 071°03'0 0.0
2017-Aug-09 08:30N 42°23' W 071°03'0 0.0
2017-Aug-09 08:00N 42°23' W 071°03'0 0.0
2017-Aug-09 07:30N 42°23' W 071°03'0 0.0
2017-Aug-09 07:00N 42°23' W 071°03'0 0.0
2017-Aug-09 06:30N 42°23' W 071°03'0 0.0
2017-Aug-09 06:00N 42°23' W 071°03'0 0.0
2017-Aug-09 03:51N 42°23' W 071°03'0 0.0
2017-Aug-09 03:28N 42°23' W 071°03'0 0.0
2017-Aug-09 03:00N 42°23' W 071°03'0 0.0
2017-Aug-09 02:29N 42°23' W 071°03'0 0.0
2017-Aug-09 01:58N 42°23' W 071°03'0 0.0
2017-Aug-09 01:29N 42°23' W 071°03'0 0.0
2017-Aug-09 00:59N 42°23' W 071°03'0 0.2
2017-Aug-09 00:30N 42°23' W 071°03'3 5.7
2017-Aug-09 00:00N 42°20' W 071°00'0 1.0
2017-Aug-08 23:30N 42°21' W 071°01'3 5.0
2017-Aug-08 23:00N 42°23' W 071°03'0 0.0
2017-Aug-08 22:30N 42°23' W 071°03'0 0.0
2017-Aug-08 22:00N 42°23' W 071°03'0 0.0
2017-Aug-08 21:30N 42°23' W 071°03'0 0.0
2017-Aug-08 21:00N 42°23' W 071°03'0 0.0
2017-Aug-08 20:30N 42°23' W 071°03'0 0.0
2017-Aug-08 19:59N 42°23' W 071°03'0 0.0
2017-Aug-08 19:30N 42°23' W 071°03'0 0.0
2017-Aug-08 19:00N 42°23' W 071°03'0 0.0
2017-Aug-08 18:30N 42°23' W 071°03'0 0.0
2017-Aug-08 18:00N 42°23' W 071°03'0 0.0
2017-Aug-08 17:30N 42°23' W 071°03'0 0.2
2017-Aug-08 17:00N 42°23' W 071°03'0 0.7
2017-Aug-08 16:30N 42°23' W 071°03'0 0.8
2017-Aug-08 16:00N 42°23' W 071°03'0 0.0
2017-Aug-08 15:30N 42°23' W 071°03'0 0.0
2017-Aug-08 15:00N 42°23' W 071°03'0 0.0
2017-Aug-08 14:30N 42°23' W 071°03'0 0.0
2017-Aug-08 14:00N 42°23' W 071°03'0 0.0
2017-Aug-08 13:22N 42°23' W 071°03'0 0.0
2017-Aug-08 12:59N 42°23' W 071°03'0 0.0
2017-Aug-08 12:30N 42°23' W 071°03'0 0.0
2017-Aug-08 11:59N 42°23' W 071°03'3 6.0
2017-Aug-08 11:30N 42°20' W 071°00'4 7.6
2017-Aug-08 11:00N 42°19' W 070°56'0 0.6
2017-Aug-08 10:30N 42°18' W 070°56'3 6.9
2017-Aug-08 10:01N 42°15' W 070°57'0 0.4
2017-Aug-08 09:30N 42°15' W 070°57'4 8.4
2017-Aug-08 09:00N 42°19' W 070°55'4 9.0
2017-Aug-08 08:30N 42°20' W 071°01'1 1.0
2017-Aug-08 08:00N 42°21' W 071°01'0 0.0
2017-Aug-08 07:30N 42°21' W 071°01'0 0.0
2017-Aug-08 07:00N 42°21' W 071°01'0 0.0
2017-Aug-08 06:30N 42°21' W 071°01'0 0.0
2017-Aug-08 06:00N 42°21' W 071°01'0 0.0
2017-Aug-08 05:30N 42°21' W 071°01'0 0.0
2017-Aug-08 05:00N 42°21' W 071°01'0 0.0
2017-Aug-08 04:30N 42°21' W 071°01'0 0.0
2017-Aug-08 04:00N 42°21' W 071°01'0 0.0
2017-Aug-08 03:30N 42°21' W 071°01'0 0.9
2017-Aug-08 03:00N 42°21' W 071°01'  

Dump ship's entire track history